weather station
Area: 7197 km2
The highest point: Čupec (819 m.s.l.)
Total stations: 36
Stations online: 31
Stations offline: 5
Current weather
23°C

Meteorological map - weather stations in Jihomoravský

. The meteorological maps show weather information from WARIO weather stations

Weather stations Jihomoravský

 UpdatesNameStatusTemperatureHumidityWind speedWind direction
14.8.2020 17:07Olešnice16.2 °C86.0 %1.3 m/s NW
14.8.2020 17:07Archlebov26.8 °C69.7 %2.6 m/s NE
14.8.2020 17:07Boskovice17.3 °C95.7 %0.8 m/s SW
14.8.2020 17:07Brno - Líšeň20.8 °C69.4 %3.5 m/s NE
14.8.2020 17:07Brno - Vinohrady18.1 °C93.1 %5.5 m/s NE
6.7.2020 01:15Brno - Komín17.8 °C86.0 %0.0 m/s NE
14.8.2020 17:07Brno - Střed19.8 °C82.2 %5.8 m/s W
14.8.2020 17:07Brno - Kníničky17.2 °C100.0 %1.1 m/s NW
14.8.2020 16:36Býkovice17.8 °C92.1 %5.4 m/s SW
14.8.2020 17:07Bzenec30.7 °C45.5 %1.1 m/s NW
14.8.2020 17:06Litobratřice27.1 °C58.0 %1.7 m/s SW
14.8.2020 17:06Dobšice28.4 °C53.2 %1.5 m/s S
14.8.2020 17:07Drnholec27.8 °C63.7 %0.0 m/s S
14.8.2020 17:06Holubice16.2 °C93.4 %5.3 m/s NE
14.8.2020 16:57Moravany26.6 °C63.9 %1.5 m/s N
14.8.2020 16:59Lomnice17.4 °C95.1 %1.5 m/s E
9.7.2020 14:55Lelekovice21.9 °C71.9 %1.9 m/s N
14.8.2020 17:07Dolní Dubňany21.1 °C75.0 %2.1 m/s W
14.8.2020 17:06Brno - Jih19.9 °C82.7 %4.7 m/s SW
14.8.2020 17:07Svatobořice27.6 °C55.8 %1.3 m/s NE
14.8.2020 17:06Moravské Bránice23.4 °C68.8 %3.6 m/s S
14.8.2020 17:06Troubsko17.3 °C82.2 %4.0 m/s N
14.8.2020 17:07Pozořice19.0 °C94.8 %4.3 m/s NW
14.8.2020 17:07Předklášteří17.5 °C80.7 %2.6 m/s W
14.8.2020 17:07Brno - Přízřenice21.0 °C82.4 %5.7 m/s S
14.8.2020 17:07Skalice u Znojma27.7 °C62.1 %0.0 m/s E
14.8.2020 17:06Šlapanice24.0 °C68.4 %3.7 m/s N
14.8.2020 17:07Kuřim °C %0.0 m/s NW
14.8.2020 17:07Strážnice GUMEX26.5 °C60.7 %0.0 m/s NE
14.8.2020 17:07Němčičky26.5 °C54.1 %0.0 m/s SE
14.8.2020 17:07Veselí nad Moravou27.0 °C60.4 %2.1 m/s SW
14.8.2020 17:06Veselí nad Moravou29.0 °C47.4 %0.0 m/s SW
14.8.2020 17:07Vlasatice26.6 °C53.4 %3.0 m/s N
3.8.2020 20:20Vrbovec17.8 °C86.1 %1.2 m/s E
14.8.2020 16:37Rájec-Jestřebí18.9 °C100.0 %2.8 m/s N
14.8.2020 17:07Brno - Královo Pole18.0 °C95.6 %3.6 m/s NW
Email notifications
Enter your email address to subscribe to notifications about news at warioweather.com. Your email address will not be used for any purpose other than sending these emails and will not be provided to any third party. The subscription can be ended at any time.
All data are only indicative. The portal administrator has no responsibility for potentially incorrect data and related consequences. Publishing or further sharing of content from www.warioweather.com is only allowed with written consent from WANET s.r.o.